METAR Data
IDs: Format: Raw Decoded Include TAF

Data at: 0255 UTC 29 May 2022

PAOR 290153Z AUTO VRB03KT 10SM CLR 19/M06 A2985 RMK AO2 SLP115 T01941056 TSNO